sensor_id;sensor_type;location;lat;lon;timestamp;P1;durP1;ratioP1;P2;durP2;ratioP2
20476;SDS011;10397;50.948;11.092;2023-05-07T00:02:12;28.10;;;23.40;;
20476;SDS011;10397;50.948;11.092;2023-05-07T00:04:42;31.73;;;23.63;;
20476;SDS011;10397;50.948;11.092;2023-05-07T00:07:12;28.77;;;23.33;;
20476;SDS011;10397;50.948;11.092;2023-05-07T00:09:43;36.80;;;25.80;;
20476;SDS011;10397;50.948;11.092;2023-05-07T00:12:13;33.87;;;25.77;;
20476;SDS011;10397;50.948;11.092;2023-05-07T00:14:44;31.73;;;24.27;;
20476;SDS011;10397;50.948;11.092;2023-05-07T00:17:14;34.27;;;23.73;;
20476;SDS011;10397;50.948;11.092;2023-05-07T00:19:45;30.20;;;23.67;;
20476;SDS011;10397;50.948;11.092;2023-05-07T00:22:16;33.27;;;24.67;;
20476;SDS011;10397;50.948;11.092;2023-05-07T00:24:46;36.17;;;25.37;;
20476;SDS011;10397;50.948;11.092;2023-05-07T00:27:16;29.83;;;23.97;;
20476;SDS011;10397;50.948;11.092;2023-05-07T00:29:49;34.17;;;24.87;;
20476;SDS011;10397;50.948;11.092;2023-05-07T00:32:20;36.30;;;24.57;;
20476;SDS011;10397;50.948;11.092;2023-05-07T00:34:50;34.00;;;23.63;;
20476;SDS011;10397;50.948;11.092;2023-05-07T00:37:27;38.10;;;25.67;;
20476;SDS011;10397;50.948;11.092;2023-05-07T00:40:02;32.37;;;24.67;;
20476;SDS011;10397;50.948;11.092;2023-05-07T00:42:30;33.43;;;24.33;;
20476;SDS011;10397;50.948;11.092;2023-05-07T00:45:00;36.80;;;25.03;;
20476;SDS011;10397;50.948;11.092;2023-05-07T00:47:31;35.70;;;26.10;;
20476;SDS011;10397;50.948;11.092;2023-05-07T00:50:05;39.93;;;25.87;;
20476;SDS011;10397;50.948;11.092;2023-05-07T00:52:35;34.17;;;24.33;;
20476;SDS011;10397;50.948;11.092;2023-05-07T00:55:06;37.83;;;25.17;;
20476;SDS011;10397;50.948;11.092;2023-05-07T00:57:38;42.17;;;25.33;;
20476;SDS011;10397;50.948;11.092;2023-05-07T01:00:08;38.30;;;26.30;;
20476;SDS011;10397;50.948;11.092;2023-05-07T01:02:40;41.43;;;25.83;;
20476;SDS011;10397;50.948;11.092;2023-05-07T01:05:12;39.10;;;26.50;;
20476;SDS011;10397;50.948;11.092;2023-05-07T01:07:41;42.73;;;24.97;;
20476;SDS011;10397;50.948;11.092;2023-05-07T01:10:12;38.77;;;26.57;;
20476;SDS011;10397;50.948;11.092;2023-05-07T01:12:42;40.37;;;26.73;;
20476;SDS011;10397;50.948;11.092;2023-05-07T01:15:12;38.27;;;26.60;;
20476;SDS011;10397;50.948;11.092;2023-05-07T01:17:43;38.17;;;25.33;;
20476;SDS011;10397;50.948;11.092;2023-05-07T01:20:13;39.73;;;27.07;;
20476;SDS011;10397;50.948;11.092;2023-05-07T01:22:44;41.80;;;27.07;;
20476;SDS011;10397;50.948;11.092;2023-05-07T01:25:15;32.73;;;23.52;;
20476;SDS011;10397;50.948;11.092;2023-05-07T01:27:49;37.00;;;25.43;;
20476;SDS011;10397;50.948;11.092;2023-05-07T01:30:16;36.98;;;25.70;;
20476;SDS011;10397;50.948;11.092;2023-05-07T01:32:57;35.50;;;25.80;;
20476;SDS011;10397;50.948;11.092;2023-05-07T01:35:30;37.37;;;26.60;;
20476;SDS011;10397;50.948;11.092;2023-05-07T01:38:02;40.27;;;26.17;;
20476;SDS011;10397;50.948;11.092;2023-05-07T01:40:33;38.57;;;25.37;;
20476;SDS011;10397;50.948;11.092;2023-05-07T01:43:03;37.28;;;25.97;;
20476;SDS011;10397;50.948;11.092;2023-05-07T01:45:35;36.68;;;25.27;;
20476;SDS011;10397;50.948;11.092;2023-05-07T01:48:06;33.92;;;24.72;;
20476;SDS011;10397;50.948;11.092;2023-05-07T01:50:36;33.90;;;25.03;;
20476;SDS011;10397;50.948;11.092;2023-05-07T01:53:08;37.58;;;25.32;;
20476;SDS011;10397;50.948;11.092;2023-05-07T01:55:39;38.30;;;24.17;;
20476;SDS011;10397;50.948;11.092;2023-05-07T01:58:10;35.97;;;23.43;;
20476;SDS011;10397;50.948;11.092;2023-05-07T02:00:41;38.55;;;24.55;;
20476;SDS011;10397;50.948;11.092;2023-05-07T02:03:12;37.98;;;25.80;;
20476;SDS011;10397;50.948;11.092;2023-05-07T02:05:44;37.53;;;25.68;;
20476;SDS011;10397;50.948;11.092;2023-05-07T02:08:15;39.20;;;25.88;;
20476;SDS011;10397;50.948;11.092;2023-05-07T02:10:47;39.75;;;25.23;;
20476;SDS011;10397;50.948;11.092;2023-05-07T02:13:18;33.73;;;24.57;;
20476;SDS011;10397;50.948;11.092;2023-05-07T02:15:49;41.88;;;25.45;;
20476;SDS011;10397;50.948;11.092;2023-05-07T02:18:21;35.10;;;23.95;;
20476;SDS011;10397;50.948;11.092;2023-05-07T02:20:52;36.17;;;24.95;;
20476;SDS011;10397;50.948;11.092;2023-05-07T02:23:23;39.55;;;27.45;;
20476;SDS011;10397;50.948;11.092;2023-05-07T02:25:54;36.30;;;24.77;;
20476;SDS011;10397;50.948;11.092;2023-05-07T02:28:26;39.03;;;26.07;;
20476;SDS011;10397;50.948;11.092;2023-05-07T02:30:58;36.13;;;24.70;;
20476;SDS011;10397;50.948;11.092;2023-05-07T02:33:29;37.90;;;26.23;;
20476;SDS011;10397;50.948;11.092;2023-05-07T02:36:09;36.10;;;26.27;;
20476;SDS011;10397;50.948;11.092;2023-05-07T02:38:36;36.27;;;25.20;;
20476;SDS011;10397;50.948;11.092;2023-05-07T02:41:08;43.92;;;27.87;;
20476;SDS011;10397;50.948;11.092;2023-05-07T02:43:39;45.95;;;28.05;;
20476;SDS011;10397;50.948;11.092;2023-05-07T02:46:10;39.40;;;25.53;;
20476;SDS011;10397;50.948;11.092;2023-05-07T02:48:41;42.23;;;26.63;;
20476;SDS011;10397;50.948;11.092;2023-05-07T02:51:12;37.78;;;25.40;;
20476;SDS011;10397;50.948;11.092;2023-05-07T02:53:43;36.08;;;26.25;;
20476;SDS011;10397;50.948;11.092;2023-05-07T02:56:15;39.15;;;27.15;;
20476;SDS011;10397;50.948;11.092;2023-05-07T02:58:46;40.97;;;27.70;;
20476;SDS011;10397;50.948;11.092;2023-05-07T03:01:17;38.73;;;25.50;;
20476;SDS011;10397;50.948;11.092;2023-05-07T03:03:49;39.23;;;27.00;;
20476;SDS011;10397;50.948;11.092;2023-05-07T03:06:20;39.70;;;26.93;;
20476;SDS011;10397;50.948;11.092;2023-05-07T03:08:51;41.03;;;27.27;;
20476;SDS011;10397;50.948;11.092;2023-05-07T03:11:22;39.27;;;27.02;;
20476;SDS011;10397;50.948;11.092;2023-05-07T03:13:54;35.03;;;25.75;;
20476;SDS011;10397;50.948;11.092;2023-05-07T03:16:25;32.28;;;23.62;;
20476;SDS011;10397;50.948;11.092;2023-05-07T03:18:57;29.63;;;22.13;;
20476;SDS011;10397;50.948;11.092;2023-05-07T03:21:29;31.23;;;21.45;;
20476;SDS011;10397;50.948;11.092;2023-05-07T03:23:59;25.03;;;19.90;;
20476;SDS011;10397;50.948;11.092;2023-05-07T03:26:30;25.43;;;20.90;;
20476;SDS011;10397;50.948;11.092;2023-05-07T03:29:02;26.70;;;19.45;;
20476;SDS011;10397;50.948;11.092;2023-05-07T03:31:33;22.58;;;19.02;;
20476;SDS011;10397;50.948;11.092;2023-05-07T03:34:04;24.37;;;19.20;;
20476;SDS011;10397;50.948;11.092;2023-05-07T03:36:36;25.10;;;19.60;;
20476;SDS011;10397;50.948;11.092;2023-05-07T03:39:07;23.52;;;19.15;;
20476;SDS011;10397;50.948;11.092;2023-05-07T03:41:39;23.67;;;19.00;;
20476;SDS011;10397;50.948;11.092;2023-05-07T03:44:10;25.60;;;20.32;;
20476;SDS011;10397;50.948;11.092;2023-05-07T03:46:42;25.55;;;19.55;;
20476;SDS011;10397;50.948;11.092;2023-05-07T03:49:14;23.30;;;17.50;;
20476;SDS011;10397;50.948;11.092;2023-05-07T03:51:45;24.30;;;19.45;;
20476;SDS011;10397;50.948;11.092;2023-05-07T03:54:17;26.85;;;19.50;;
20476;SDS011;10397;50.948;11.092;2023-05-07T03:56:49;22.70;;;18.07;;
20476;SDS011;10397;50.948;11.092;2023-05-07T03:59:20;25.57;;;19.03;;
20476;SDS011;10397;50.948;11.092;2023-05-07T04:01:51;22.70;;;17.33;;
20476;SDS011;10397;50.948;11.092;2023-05-07T04:04:22;26.90;;;19.37;;
20476;SDS011;10397;50.948;11.092;2023-05-07T04:06:53;28.40;;;20.80;;
20476;SDS011;10397;50.948;11.092;2023-05-07T04:09:25;26.07;;;20.07;;
20476;SDS011;10397;50.948;11.092;2023-05-07T04:11:56;29.80;;;19.83;;
20476;SDS011;10397;50.948;11.092;2023-05-07T04:14:27;30.12;;;20.55;;
20476;SDS011;10397;50.948;11.092;2023-05-07T04:16:59;28.07;;;20.82;;
20476;SDS011;10397;50.948;11.092;2023-05-07T04:19:30;24.40;;;19.67;;
20476;SDS011;10397;50.948;11.092;2023-05-07T04:22:01;29.67;;;20.72;;
20476;SDS011;10397;50.948;11.092;2023-05-07T04:24:32;24.12;;;17.32;;
20476;SDS011;10397;50.948;11.092;2023-05-07T04:27:04;26.12;;;19.75;;
20476;SDS011;10397;50.948;11.092;2023-05-07T04:29:35;27.98;;;19.60;;
20476;SDS011;10397;50.948;11.092;2023-05-07T04:32:06;29.48;;;19.92;;
20476;SDS011;10397;50.948;11.092;2023-05-07T04:34:37;26.50;;;18.10;;
20476;SDS011;10397;50.948;11.092;2023-05-07T04:37:08;24.27;;;17.70;;
20476;SDS011;10397;50.948;11.092;2023-05-07T04:39:39;22.85;;;16.73;;
20476;SDS011;10397;50.948;11.092;2023-05-07T04:42:14;22.77;;;15.77;;
20476;SDS011;10397;50.948;11.092;2023-05-07T04:44:41;18.87;;;14.30;;
20476;SDS011;10397;50.948;11.092;2023-05-07T04:47:12;17.35;;;14.90;;
20476;SDS011;10397;50.948;11.092;2023-05-07T04:49:43;20.80;;;15.20;;
20476;SDS011;10397;50.948;11.092;2023-05-07T04:52:14;14.47;;;12.98;;
20476;SDS011;10397;50.948;11.092;2023-05-07T04:54:45;17.32;;;14.43;;
20476;SDS011;10397;50.948;11.092;2023-05-07T04:57:17;16.62;;;13.50;;
20476;SDS011;10397;50.948;11.092;2023-05-07T04:59:48;12.93;;;11.63;;
20476;SDS011;10397;50.948;11.092;2023-05-07T05:02:19;14.73;;;12.47;;
20476;SDS011;10397;50.948;11.092;2023-05-07T05:04:51;14.53;;;11.30;;
20476;SDS011;10397;50.948;11.092;2023-05-07T05:07:23;15.03;;;13.40;;
20476;SDS011;10397;50.948;11.092;2023-05-07T05:09:54;13.88;;;12.23;;
20476;SDS011;10397;50.948;11.092;2023-05-07T05:12:26;12.75;;;11.43;;
20476;SDS011;10397;50.948;11.092;2023-05-07T05:14:57;13.58;;;12.18;;
20476;SDS011;10397;50.948;11.092;2023-05-07T05:17:29;12.97;;;11.77;;
20476;SDS011;10397;50.948;11.092;2023-05-07T05:20:00;13.17;;;11.83;;
20476;SDS011;10397;50.948;11.092;2023-05-07T05:22:31;14.13;;;12.43;;
20476;SDS011;10397;50.948;11.092;2023-05-07T05:25:02;14.03;;;12.63;;
20476;SDS011;10397;50.948;11.092;2023-05-07T05:27:32;14.23;;;12.75;;
20476;SDS011;10397;50.948;11.092;2023-05-07T05:30:04;13.35;;;11.93;;
20476;SDS011;10397;50.948;11.092;2023-05-07T05:32:34;14.50;;;12.98;;
20476;SDS011;10397;50.948;11.092;2023-05-07T05:35:07;15.45;;;12.45;;
20476;SDS011;10397;50.948;11.092;2023-05-07T05:37:38;16.30;;;14.55;;
20476;SDS011;10397;50.948;11.092;2023-05-07T05:40:10;18.45;;;16.65;;
20476;SDS011;10397;50.948;11.092;2023-05-07T05:42:40;18.57;;;16.25;;
20476;SDS011;10397;50.948;11.092;2023-05-07T05:45:11;18.05;;;16.32;;
20476;SDS011;10397;50.948;11.092;2023-05-07T05:47:42;21.75;;;17.52;;
20476;SDS011;10397;50.948;11.092;2023-05-07T05:50:14;21.25;;;17.12;;
20476;SDS011;10397;50.948;11.092;2023-05-07T05:52:45;19.10;;;16.93;;
20476;SDS011;10397;50.948;11.092;2023-05-07T05:55:16;19.27;;;17.17;;
20476;SDS011;10397;50.948;11.092;2023-05-07T05:57:47;22.77;;;17.73;;
20476;SDS011;10397;50.948;11.092;2023-05-07T06:00:19;20.45;;;18.12;;
20476;SDS011;10397;50.948;11.092;2023-05-07T06:02:50;22.07;;;17.95;;
20476;SDS011;10397;50.948;11.092;2023-05-07T06:05:21;21.87;;;17.25;;
20476;SDS011;10397;50.948;11.092;2023-05-07T06:07:53;21.07;;;18.33;;
20476;SDS011;10397;50.948;11.092;2023-05-07T06:10:24;25.23;;;18.37;;
20476;SDS011;10397;50.948;11.092;2023-05-07T06:12:55;20.87;;;17.03;;
20476;SDS011;10397;50.948;11.092;2023-05-07T06:15:26;20.87;;;17.17;;
20476;SDS011;10397;50.948;11.092;2023-05-07T06:17:57;20.72;;;17.32;;
20476;SDS011;10397;50.948;11.092;2023-05-07T06:20:29;24.65;;;17.57;;
20476;SDS011;10397;50.948;11.092;2023-05-07T06:23:00;26.95;;;18.05;;
20476;SDS011;10397;50.948;11.092;2023-05-07T06:25:32;22.20;;;17.37;;
20476;SDS011;10397;50.948;11.092;2023-05-07T06:28:02;19.67;;;16.80;;
20476;SDS011;10397;50.948;11.092;2023-05-07T06:30:33;18.90;;;15.53;;
20476;SDS011;10397;50.948;11.092;2023-05-07T06:33:04;17.55;;;15.00;;
20476;SDS011;10397;50.948;11.092;2023-05-07T06:35:35;20.35;;;15.32;;
20476;SDS011;10397;50.948;11.092;2023-05-07T06:38:06;21.87;;;14.87;;
20476;SDS011;10397;50.948;11.092;2023-05-07T06:40:38;21.87;;;15.60;;
20476;SDS011;10397;50.948;11.092;2023-05-07T06:43:10;21.50;;;14.55;;
20476;SDS011;10397;50.948;11.092;2023-05-07T06:45:41;20.50;;;14.28;;
20476;SDS011;10397;50.948;11.092;2023-05-07T06:48:13;17.30;;;14.33;;
20476;SDS011;10397;50.948;11.092;2023-05-07T06:50:45;15.30;;;13.58;;
20476;SDS011;10397;50.948;11.092;2023-05-07T06:53:17;15.78;;;13.45;;
20476;SDS011;10397;50.948;11.092;2023-05-07T06:55:49;17.75;;;13.38;;
20476;SDS011;10397;50.948;11.092;2023-05-07T06:58:20;16.70;;;13.68;;
20476;SDS011;10397;50.948;11.092;2023-05-07T07:00:51;15.88;;;14.05;;
20476;SDS011;10397;50.948;11.092;2023-05-07T07:03:22;15.25;;;13.62;;
20476;SDS011;10397;50.948;11.092;2023-05-07T07:05:54;18.45;;;13.98;;
20476;SDS011;10397;50.948;11.092;2023-05-07T07:08:25;18.85;;;13.43;;
20476;SDS011;10397;50.948;11.092;2023-05-07T07:10:57;14.93;;;12.28;;
20476;SDS011;10397;50.948;11.092;2023-05-07T07:13:27;14.28;;;11.88;;
20476;SDS011;10397;50.948;11.092;2023-05-07T07:15:59;12.77;;;11.50;;
20476;SDS011;10397;50.948;11.092;2023-05-07T07:18:30;13.50;;;11.90;;
20476;SDS011;10397;50.948;11.092;2023-05-07T07:21:02;13.32;;;11.93;;
20476;SDS011;10397;50.948;11.092;2023-05-07T07:23:33;14.60;;;13.15;;
20476;SDS011;10397;50.948;11.092;2023-05-07T07:26:05;13.45;;;12.05;;
20476;SDS011;10397;50.948;11.092;2023-05-07T07:28:41;13.60;;;12.18;;
20476;SDS011;10397;50.948;11.092;2023-05-07T07:31:06;13.43;;;11.23;;
20476;SDS011;10397;50.948;11.092;2023-05-07T07:33:38;13.60;;;11.13;;
20476;SDS011;10397;50.948;11.092;2023-05-07T07:36:09;11.78;;;10.58;;
20476;SDS011;10397;50.948;11.092;2023-05-07T07:38:40;11.35;;;10.30;;
20476;SDS011;10397;50.948;11.092;2023-05-07T07:41:11;11.12;;;10.05;;
20476;SDS011;10397;50.948;11.092;2023-05-07T07:43:43;11.43;;;10.33;;
20476;SDS011;10397;50.948;11.092;2023-05-07T07:46:13;11.60;;;10.00;;
20476;SDS011;10397;50.948;11.092;2023-05-07T07:48:45;11.78;;;10.58;;
20476;SDS011;10397;50.948;11.092;2023-05-07T07:51:17;11.28;;;10.18;;
20476;SDS011;10397;50.948;11.092;2023-05-07T07:53:49;12.98;;;10.88;;
20476;SDS011;10397;50.948;11.092;2023-05-07T07:56:21;11.68;;;10.58;;
20476;SDS011;10397;50.948;11.092;2023-05-07T07:58:52;12.88;;;11.57;;
20476;SDS011;10397;50.948;11.092;2023-05-07T08:01:24;10.72;;;9.68;;
20476;SDS011;10397;50.948;11.092;2023-05-07T08:03:55;11.85;;;10.65;;
20476;SDS011;10397;50.948;11.092;2023-05-07T08:06:26;11.08;;;9.98;;
20476;SDS011;10397;50.948;11.092;2023-05-07T08:08:58;12.00;;;10.80;;
20476;SDS011;10397;50.948;11.092;2023-05-07T08:11:29;10.90;;;9.90;;
20476;SDS011;10397;50.948;11.092;2023-05-07T08:14:01;11.57;;;10.45;;
20476;SDS011;10397;50.948;11.092;2023-05-07T08:16:32;12.43;;;11.33;;
20476;SDS011;10397;50.948;11.092;2023-05-07T08:19:03;11.95;;;10.08;;
20476;SDS011;10397;50.948;11.092;2023-05-07T08:21:38;12.75;;;11.45;;
20476;SDS011;10397;50.948;11.092;2023-05-07T08:24:06;13.10;;;11.38;;
20476;SDS011;10397;50.948;11.092;2023-05-07T08:26:37;12.00;;;10.80;;
20476;SDS011;10397;50.948;11.092;2023-05-07T08:29:08;12.15;;;10.90;;
20476;SDS011;10397;50.948;11.092;2023-05-07T08:31:40;12.18;;;10.98;;
20476;SDS011;10397;50.948;11.092;2023-05-07T08:34:11;11.95;;;10.75;;
20476;SDS011;10397;50.948;11.092;2023-05-07T08:36:43;12.23;;;11.00;;
20476;SDS011;10397;50.948;11.092;2023-05-07T08:39:15;12.13;;;10.93;;
20476;SDS011;10397;50.948;11.092;2023-05-07T08:42:00;11.95;;;10.70;;
20476;SDS011;10397;50.948;11.092;2023-05-07T08:44:32;11.90;;;10.70;;
20476;SDS011;10397;50.948;11.092;2023-05-07T08:47:01;14.07;;;12.37;;
20476;SDS011;10397;50.948;11.092;2023-05-07T08:49:31;13.23;;;12.03;;
20476;SDS011;10397;50.948;11.092;2023-05-07T08:52:02;14.37;;;12.77;;
20476;SDS011;10397;50.948;11.092;2023-05-07T08:54:32;13.57;;;12.17;;
20476;SDS011;10397;50.948;11.092;2023-05-07T08:57:03;13.33;;;12.00;;
20476;SDS011;10397;50.948;11.092;2023-05-07T08:59:34;12.53;;;11.37;;
20476;SDS011;10397;50.948;11.092;2023-05-07T09:02:05;13.00;;;11.60;;
20476;SDS011;10397;50.948;11.092;2023-05-07T09:04:35;13.60;;;12.30;;
20476;SDS011;10397;50.948;11.092;2023-05-07T09:07:06;13.30;;;11.63;;
20476;SDS011;10397;50.948;11.092;2023-05-07T09:09:36;12.90;;;11.33;;
20476;SDS011;10397;50.948;11.092;2023-05-07T09:12:07;16.47;;;13.27;;
20476;SDS011;10397;50.948;11.092;2023-05-07T09:14:38;15.27;;;13.70;;
20476;SDS011;10397;50.948;11.092;2023-05-07T09:17:09;13.43;;;12.13;;
20476;SDS011;10397;50.948;11.092;2023-05-07T09:19:41;16.50;;;14.27;;
20476;SDS011;10397;50.948;11.092;2023-05-07T09:22:11;14.83;;;13.30;;
20476;SDS011;10397;50.948;11.092;2023-05-07T09:24:48;14.63;;;12.70;;
20476;SDS011;10397;50.948;11.092;2023-05-07T09:27:18;14.27;;;12.83;;
20476;SDS011;10397;50.948;11.092;2023-05-07T09:29:49;13.40;;;12.10;;
20476;SDS011;10397;50.948;11.092;2023-05-07T09:32:20;14.03;;;12.73;;
20476;SDS011;10397;50.948;11.092;2023-05-07T09:34:51;15.17;;;12.93;;
20476;SDS011;10397;50.948;11.092;2023-05-07T09:37:22;15.80;;;13.40;;
20476;SDS011;10397;50.948;11.092;2023-05-07T09:39:53;13.60;;;12.23;;
20476;SDS011;10397;50.948;11.092;2023-05-07T09:42:23;14.57;;;13.17;;
20476;SDS011;10397;50.948;11.092;2023-05-07T09:44:54;14.80;;;13.20;;
20476;SDS011;10397;50.948;11.092;2023-05-07T09:47:25;14.07;;;12.67;;
20476;SDS011;10397;50.948;11.092;2023-05-07T09:49:56;13.90;;;12.50;;
20476;SDS011;10397;50.948;11.092;2023-05-07T09:52:26;13.27;;;11.97;;
20476;SDS011;10397;50.948;11.092;2023-05-07T09:54:57;12.67;;;11.37;;
20476;SDS011;10397;50.948;11.092;2023-05-07T09:57:28;12.47;;;11.37;;
20476;SDS011;10397;50.948;11.092;2023-05-07T09:59:59;12.43;;;11.23;;
20476;SDS011;10397;50.948;11.092;2023-05-07T10:02:30;12.07;;;10.93;;
20476;SDS011;10397;50.948;11.092;2023-05-07T10:05:00;12.53;;;10.90;;
20476;SDS011;10397;50.948;11.092;2023-05-07T10:07:31;12.37;;;11.17;;
20476;SDS011;10397;50.948;11.092;2023-05-07T10:10:01;12.07;;;10.93;;
20476;SDS011;10397;50.948;11.092;2023-05-07T10:12:32;12.77;;;11.43;;
20476;SDS011;10397;50.948;11.092;2023-05-07T10:15:03;12.70;;;11.37;;
20476;SDS011;10397;50.948;11.092;2023-05-07T10:17:40;13.57;;;12.20;;
20476;SDS011;10397;50.948;11.092;2023-05-07T10:20:10;14.57;;;11.63;;
20476;SDS011;10397;50.948;11.092;2023-05-07T10:22:41;14.23;;;12.83;;
20476;SDS011;10397;50.948;11.092;2023-05-07T10:25:28;13.23;;;11.97;;
20476;SDS011;10397;50.948;11.092;2023-05-07T10:28:01;12.80;;;11.50;;
20476;SDS011;10397;50.948;11.092;2023-05-07T10:30:37;13.23;;;11.67;;
20476;SDS011;10397;50.948;11.092;2023-05-07T10:33:06;18.60;;;12.63;;
20476;SDS011;10397;50.948;11.092;2023-05-07T10:35:43;13.23;;;11.83;;
20476;SDS011;10397;50.948;11.092;2023-05-07T10:38:12;13.00;;;11.63;;
20476;SDS011;10397;50.948;11.092;2023-05-07T10:40:44;12.43;;;11.27;;
20476;SDS011;10397;50.948;11.092;2023-05-07T10:43:15;13.57;;;12.27;;
20476;SDS011;10397;50.948;11.092;2023-05-07T10:51:31;11.07;;;9.97;;
20476;SDS011;10397;50.948;11.092;2023-05-07T10:56:40;11.17;;;10.17;;
20476;SDS011;10397;50.948;11.092;2023-05-07T11:01:56;11.30;;;10.20;;
20476;SDS011;10397;50.948;11.092;2023-05-07T11:04:26;10.93;;;9.93;;
20476;SDS011;10397;50.948;11.092;2023-05-07T11:15:08;12.47;;;11.27;;
20476;SDS011;10397;50.948;11.092;2023-05-07T11:17:54;12.03;;;10.83;;
20476;SDS011;10397;50.948;11.092;2023-05-07T11:24:00;12.60;;;11.40;;
20476;SDS011;10397;50.948;11.092;2023-05-07T11:26:04;13.23;;;11.87;;
20476;SDS011;10397;50.948;11.092;2023-05-07T11:28:39;13.03;;;11.73;;
20476;SDS011;10397;50.948;11.092;2023-05-07T11:31:11;12.33;;;10.93;;
20476;SDS011;10397;50.948;11.092;2023-05-07T11:33:43;12.63;;;11.10;;
20476;SDS011;10397;50.948;11.092;2023-05-07T11:36:12;12.57;;;11.13;;
20476;SDS011;10397;50.948;11.092;2023-05-07T11:38:43;13.43;;;11.20;;
20476;SDS011;10397;50.948;11.092;2023-05-07T11:41:15;13.67;;;11.63;;
20476;SDS011;10397;50.948;11.092;2023-05-07T11:43:53;12.53;;;11.27;;
20476;SDS011;10397;50.948;11.092;2023-05-07T11:46:23;13.30;;;11.57;;
20476;SDS011;10397;50.948;11.092;2023-05-07T11:48:55;14.20;;;11.73;;
20476;SDS011;10397;50.948;11.092;2023-05-07T11:51:24;11.90;;;10.80;;
20476;SDS011;10397;50.948;11.092;2023-05-07T11:53:55;11.33;;;10.33;;
20476;SDS011;10397;50.948;11.092;2023-05-07T11:56:26;14.57;;;10.37;;
20476;SDS011;10397;50.948;11.092;2023-05-07T11:58:57;10.93;;;9.77;;
20476;SDS011;10397;50.948;11.092;2023-05-07T12:01:28;11.60;;;10.50;;
20476;SDS011;10397;50.948;11.092;2023-05-07T12:03:59;11.70;;;10.60;;
20476;SDS011;10397;50.948;11.092;2023-05-07T12:06:29;10.87;;;9.73;;
20476;SDS011;10397;50.948;11.092;2023-05-07T12:09:01;10.87;;;9.77;;
20476;SDS011;10397;50.948;11.092;2023-05-07T12:11:31;12.23;;;9.67;;
20476;SDS011;10397;50.948;11.092;2023-05-07T12:14:02;11.60;;;10.43;;
20476;SDS011;10397;50.948;11.092;2023-05-07T12:16:34;10.43;;;9.43;;
20476;SDS011;10397;50.948;11.092;2023-05-07T12:19:04;11.30;;;8.63;;
20476;SDS011;10397;50.948;11.092;2023-05-07T12:21:35;10.83;;;9.23;;
20476;SDS011;10397;50.948;11.092;2023-05-07T12:24:06;10.93;;;9.27;;
20476;SDS011;10397;50.948;11.092;2023-05-07T12:26:39;12.07;;;8.13;;
20476;SDS011;10397;50.948;11.092;2023-05-07T12:29:10;10.10;;;8.97;;
20476;SDS011;10397;50.948;11.092;2023-05-07T12:31:41;9.10;;;8.20;;
20476;SDS011;10397;50.948;11.092;2023-05-07T12:34:12;9.87;;;9.00;;
20476;SDS011;10397;50.948;11.092;2023-05-07T12:36:42;11.30;;;10.13;;
20476;SDS011;10397;50.948;11.092;2023-05-07T12:39:14;10.23;;;9.00;;
20476;SDS011;10397;50.948;11.092;2023-05-07T12:41:55;10.63;;;9.63;;
20476;SDS011;10397;50.948;11.092;2023-05-07T12:44:25;9.77;;;8.53;;
20476;SDS011;10397;50.948;11.092;2023-05-07T12:46:55;9.53;;;8.17;;
20476;SDS011;10397;50.948;11.092;2023-05-07T12:49:26;9.63;;;8.60;;
20476;SDS011;10397;50.948;11.092;2023-05-07T12:51:57;9.47;;;8.60;;
20476;SDS011;10397;50.948;11.092;2023-05-07T12:54:31;9.33;;;8.43;;
20476;SDS011;10397;50.948;11.092;2023-05-07T12:57:01;8.10;;;7.40;;
20476;SDS011;10397;50.948;11.092;2023-05-07T12:59:38;9.10;;;8.30;;
20476;SDS011;10397;50.948;11.092;2023-05-07T13:02:08;8.93;;;8.13;;
20476;SDS011;10397;50.948;11.092;2023-05-07T13:04:38;9.33;;;8.43;;
20476;SDS011;10397;50.948;11.092;2023-05-07T13:07:09;9.50;;;8.60;;
20476;SDS011;10397;50.948;11.092;2023-05-07T13:09:40;8.27;;;7.67;;
20476;SDS011;10397;50.948;11.092;2023-05-07T13:12:11;9.47;;;8.47;;
20476;SDS011;10397;50.948;11.092;2023-05-07T13:14:42;9.27;;;8.47;;
20476;SDS011;10397;50.948;11.092;2023-05-07T13:17:13;9.77;;;8.30;;
20476;SDS011;10397;50.948;11.092;2023-05-07T13:19:44;8.53;;;7.83;;
20476;SDS011;10397;50.948;11.092;2023-05-07T13:22:15;8.60;;;7.80;;
20476;SDS011;10397;50.948;11.092;2023-05-07T13:24:46;8.40;;;7.60;;
20476;SDS011;10397;50.948;11.092;2023-05-07T13:27:17;7.77;;;7.17;;
20476;SDS011;10397;50.948;11.092;2023-05-07T13:29:48;7.63;;;7.03;;
20476;SDS011;10397;50.948;11.092;2023-05-07T13:32:19;7.90;;;7.20;;
20476;SDS011;10397;50.948;11.092;2023-05-07T13:34:50;8.30;;;7.70;;
20476;SDS011;10397;50.948;11.092;2023-05-07T13:37:21;8.77;;;7.87;;
20476;SDS011;10397;50.948;11.092;2023-05-07T13:39:53;8.13;;;7.43;;
20476;SDS011;10397;50.948;11.092;2023-05-07T13:42:24;7.33;;;6.73;;
20476;SDS011;10397;50.948;11.092;2023-05-07T13:44:55;7.43;;;6.83;;
20476;SDS011;10397;50.948;11.092;2023-05-07T13:47:26;6.33;;;5.80;;
20476;SDS011;10397;50.948;11.092;2023-05-07T13:49:57;6.80;;;6.20;;
20476;SDS011;10397;50.948;11.092;2023-05-07T13:52:28;7.40;;;6.80;;
20476;SDS011;10397;50.948;11.092;2023-05-07T13:54:59;5.83;;;5.33;;
20476;SDS011;10397;50.948;11.092;2023-05-07T13:57:30;6.13;;;5.63;;
20476;SDS011;10397;50.948;11.092;2023-05-07T14:00:01;7.10;;;6.30;;
20476;SDS011;10397;50.948;11.092;2023-05-07T14:02:31;6.90;;;6.30;;
20476;SDS011;10397;50.948;11.092;2023-05-07T14:05:02;6.77;;;6.17;;
20476;SDS011;10397;50.948;11.092;2023-05-07T14:07:33;6.27;;;5.77;;
20476;SDS011;10397;50.948;11.092;2023-05-07T14:10:04;7.50;;;6.80;;
20476;SDS011;10397;50.948;11.092;2023-05-07T14:12:34;8.67;;;6.60;;
20476;SDS011;10397;50.948;11.092;2023-05-07T14:15:06;7.10;;;6.50;;
20476;SDS011;10397;50.948;11.092;2023-05-07T14:17:37;6.43;;;5.83;;
20476;SDS011;10397;50.948;11.092;2023-05-07T14:20:08;6.93;;;6.30;;
20476;SDS011;10397;50.948;11.092;2023-05-07T14:22:38;6.37;;;5.87;;
20476;SDS011;10397;50.948;11.092;2023-05-07T14:25:09;6.53;;;6.03;;
20476;SDS011;10397;50.948;11.092;2023-05-07T14:27:39;7.13;;;6.53;;
20476;SDS011;10397;50.948;11.092;2023-05-07T14:30:11;6.77;;;6.27;;
20476;SDS011;10397;50.948;11.092;2023-05-07T14:32:41;5.90;;;5.43;;
20476;SDS011;10397;50.948;11.092;2023-05-07T14:35:12;6.43;;;5.90;;
20476;SDS011;10397;50.948;11.092;2023-05-07T14:37:43;6.80;;;6.20;;
20476;SDS011;10397;50.948;11.092;2023-05-07T14:40:14;6.60;;;6.00;;
20476;SDS011;10397;50.948;11.092;2023-05-07T14:42:45;6.27;;;5.50;;
20476;SDS011;10397;50.948;11.092;2023-05-07T14:45:16;5.90;;;5.30;;
20476;SDS011;10397;50.948;11.092;2023-05-07T14:47:47;6.77;;;4.93;;
20476;SDS011;10397;50.948;11.092;2023-05-07T14:50:18;6.03;;;5.53;;
20476;SDS011;10397;50.948;11.092;2023-05-07T14:52:49;4.93;;;4.53;;
20476;SDS011;10397;50.948;11.092;2023-05-07T14:55:20;4.83;;;4.43;;
20476;SDS011;10397;50.948;11.092;2023-05-07T14:57:51;4.83;;;4.43;;
20476;SDS011;10397;50.948;11.092;2023-05-07T15:00:22;4.03;;;3.60;;